createdAt,value
2018-07-23T00:00:39.420Z,18.10
2018-07-23T00:03:08.673Z,14.87
2018-07-23T00:05:37.982Z,14.37
2018-07-23T00:08:07.278Z,13.73
2018-07-23T00:10:36.820Z,12.87
2018-07-23T00:13:06.076Z,16.60
2018-07-23T00:15:35.073Z,13.53
2018-07-23T00:18:03.928Z,14.00
2018-07-23T00:20:33.053Z,14.77
2018-07-23T00:23:02.304Z,14.90
2018-07-23T00:25:31.641Z,14.60
2018-07-23T00:28:01.137Z,15.07
2018-07-23T00:30:30.380Z,16.83
2018-07-23T00:32:59.810Z,13.10
2018-07-23T00:35:29.112Z,14.60
2018-07-23T00:37:58.713Z,14.10
2018-07-23T00:40:27.956Z,13.87
2018-07-23T00:42:57.297Z,13.70
2018-07-23T00:45:26.601Z,15.30
2018-07-23T00:47:55.832Z,16.20
2018-07-23T00:50:25.093Z,13.93
2018-07-23T00:52:54.332Z,14.77
2018-07-23T00:55:23.872Z,16.13
2018-07-23T00:57:53.144Z,15.70
2018-07-23T01:00:22.972Z,13.67
2018-07-23T01:02:52.204Z,15.10
2018-07-23T01:05:21.313Z,14.77
2018-07-23T01:07:50.580Z,14.90
2018-07-23T01:10:19.828Z,14.13
2018-07-23T01:12:49.400Z,14.13
2018-07-23T01:15:18.696Z,16.00
2018-07-23T01:17:47.936Z,14.80
2018-07-23T01:20:17.184Z,14.20
2018-07-23T01:22:47.746Z,14.57
2018-07-23T01:25:16.972Z,15.07
2018-07-23T01:27:46.217Z,16.43
2018-07-23T01:30:15.466Z,15.33
2018-07-23T01:32:44.841Z,15.20
2018-07-23T01:35:14.096Z,15.63
2018-07-23T01:37:43.548Z,15.60
2018-07-23T01:40:12.824Z,14.97
2018-07-23T01:42:42.336Z,14.10
2018-07-23T01:45:11.841Z,16.20
2018-07-23T01:47:41.091Z,14.80
2018-07-23T01:50:11.229Z,14.60
2018-07-23T01:52:40.613Z,18.50
2018-07-23T01:55:09.852Z,15.60
2018-07-23T01:57:39.061Z,14.50
2018-07-23T02:00:08.344Z,15.97
2018-07-23T02:02:37.251Z,15.27
2018-07-23T02:05:06.433Z,28.03
2018-07-23T02:07:35.992Z,15.00
2018-07-23T02:10:05.364Z,15.50
2018-07-23T02:12:34.643Z,15.90
2018-07-23T02:15:04.814Z,14.10
2018-07-23T02:17:34.056Z,17.00
2018-07-23T02:20:03.043Z,16.77
2018-07-23T02:22:32.168Z,16.40
2018-07-23T02:25:01.430Z,15.93
2018-07-23T02:27:30.656Z,17.03
2018-07-23T02:30:00.298Z,16.60
2018-07-23T02:32:29.510Z,16.67
2018-07-23T02:34:58.830Z,16.80
2018-07-23T02:37:28.039Z,24.13
2018-07-23T02:39:57.277Z,16.10
2018-07-23T02:42:26.504Z,16.40
2018-07-23T02:44:55.793Z,17.03
2018-07-23T02:47:25.009Z,18.70
2018-07-23T02:49:54.232Z,19.10
2018-07-23T02:52:23.812Z,19.97
2018-07-23T02:54:54.544Z,18.83
2018-07-23T02:57:23.806Z,21.30
2018-07-23T02:59:53.058Z,18.60
2018-07-23T03:02:22.292Z,18.97
2018-07-23T03:04:51.525Z,17.47
2018-07-23T03:07:20.844Z,19.37
2018-07-23T03:09:50.059Z,20.50
2018-07-23T03:12:19.328Z,17.57
2018-07-23T03:14:48.692Z,17.70
2018-07-23T03:17:18.367Z,19.10
2018-07-23T03:19:47.605Z,17.60
2018-07-23T03:22:16.512Z,17.20
2018-07-23T03:24:46.072Z,17.83
2018-07-23T03:27:15.300Z,17.87
2018-07-23T03:29:44.561Z,16.70
2018-07-23T03:32:13.894Z,17.73
2018-07-23T03:34:43.144Z,16.67
2018-07-23T03:37:12.900Z,18.70
2018-07-23T03:39:41.813Z,18.93
2018-07-23T03:42:11.532Z,18.73
2018-07-23T03:44:40.808Z,18.40
2018-07-23T03:47:09.755Z,18.37
2018-07-23T03:49:38.970Z,18.50
2018-07-23T03:52:08.274Z,18.87
2018-07-23T03:54:37.520Z,20.27
2018-07-23T03:57:06.808Z,19.77
2018-07-23T03:59:36.332Z,17.70
2018-07-23T04:02:05.633Z,17.43
2018-07-23T04:04:34.897Z,19.10
2018-07-23T04:07:03.831Z,20.63
2018-07-23T04:09:32.970Z,18.90
2018-07-23T04:12:02.213Z,18.77
2018-07-23T04:14:31.501Z,17.97
2018-07-23T04:17:00.744Z,19.83
2018-07-23T04:19:30.560Z,19.50
2018-07-23T04:22:00.067Z,18.63
2018-07-23T04:24:29.339Z,18.83
2018-07-23T04:26:58.260Z,19.60
2018-07-23T04:29:27.400Z,19.87
2018-07-23T04:31:56.701Z,16.83
2018-07-23T04:34:25.929Z,18.03
2018-07-23T04:36:55.200Z,19.93
2018-07-23T04:39:24.474Z,23.53
2018-07-23T04:41:53.708Z,19.43
2018-07-23T04:44:23.455Z,14.70
2018-07-23T04:46:52.730Z,17.03
2018-07-23T04:49:21.759Z,20.83
2018-07-23T04:51:51.039Z,16.20
2018-07-23T04:54:20.265Z,18.30
2018-07-23T04:56:49.832Z,16.60
2018-07-23T04:59:18.714Z,22.70
2018-07-23T05:01:47.826Z,17.87
2018-07-23T05:04:17.064Z,19.07
2018-07-23T05:06:46.590Z,18.37
2018-07-23T05:09:15.827Z,17.40
2018-07-23T05:11:45.069Z,18.33
2018-07-23T05:14:14.324Z,16.97
2018-07-23T05:16:43.752Z,17.40
2018-07-23T05:19:13.163Z,17.00
2018-07-23T05:21:42.821Z,23.50
2018-07-23T05:24:12.084Z,17.47
2018-07-23T05:26:41.333Z,24.50
2018-07-23T05:29:10.880Z,18.10
2018-07-23T05:31:40.142Z,15.47
2018-07-23T05:34:10.429Z,17.83
2018-07-23T05:36:39.752Z,20.37
2018-07-23T05:39:10.612Z,15.37
2018-07-23T05:41:40.149Z,15.30
2018-07-23T05:44:09.422Z,15.30
2018-07-23T05:46:38.736Z,15.17
2018-07-23T05:49:08.353Z,16.30
2018-07-23T05:51:37.597Z,16.10
2018-07-23T05:54:07.572Z,14.43
2018-07-23T05:56:36.957Z,15.90
2018-07-23T05:59:06.260Z,15.50
2018-07-23T06:01:35.578Z,15.87
2018-07-23T06:04:04.950Z,15.20
2018-07-23T06:06:34.367Z,13.30
2018-07-23T06:09:04.189Z,14.93
2018-07-23T06:11:33.920Z,14.80
2018-07-23T06:14:03.168Z,14.07
2018-07-23T06:16:32.801Z,14.30
2018-07-23T06:19:02.146Z,14.30
2018-07-23T06:21:31.436Z,12.63
2018-07-23T06:24:01.088Z,15.40
2018-07-23T06:26:30.456Z,15.90
2018-07-23T06:28:59.702Z,16.23
2018-07-23T06:31:28.941Z,14.03
2018-07-23T06:33:58.483Z,15.20
2018-07-23T06:36:27.399Z,13.90
2018-07-23T06:38:56.537Z,13.00
2018-07-23T06:41:25.802Z,14.70
2018-07-23T06:43:55.073Z,12.53
2018-07-23T06:46:24.084Z,14.20
2018-07-23T06:48:53.224Z,13.73
2018-07-23T06:51:22.478Z,13.13
2018-07-23T06:53:51.706Z,12.40
2018-07-23T06:56:21.311Z,13.30
2018-07-23T06:58:50.565Z,12.53
2018-07-23T07:01:20.093Z,13.30
2018-07-23T07:03:49.364Z,13.13
2018-07-23T07:06:18.656Z,14.37
2018-07-23T07:08:47.872Z,13.43
2018-07-23T07:11:17.132Z,15.03
2018-07-23T07:13:46.389Z,12.83
2018-07-23T07:16:15.630Z,13.23
2018-07-23T07:18:45.140Z,13.10
2018-07-23T07:21:14.537Z,13.63
2018-07-23T07:23:43.800Z,12.57
2018-07-23T07:26:13.689Z,13.07
2018-07-23T07:28:42.953Z,11.63
2018-07-23T07:31:12.213Z,11.50
2018-07-23T07:33:41.461Z,12.57
2018-07-23T07:36:10.708Z,13.90
2018-07-23T07:38:40.192Z,11.13
2018-07-23T07:41:10.064Z,11.30
2018-07-23T07:43:39.281Z,11.90
2018-07-23T07:46:08.736Z,10.07
2018-07-23T07:48:38.013Z,11.00
2018-07-23T07:51:07.283Z,11.13
2018-07-23T07:53:36.529Z,12.20
2018-07-23T07:56:05.869Z,12.07
2018-07-23T07:58:35.117Z,11.07
2018-07-23T08:01:04.045Z,12.80
2018-07-23T08:03:33.684Z,12.57
2018-07-23T08:06:02.916Z,12.23
2018-07-23T08:08:32.137Z,11.77
2018-07-23T08:11:01.406Z,11.90
2018-07-23T08:13:30.628Z,11.83
2018-07-23T08:15:59.989Z,11.77
2018-07-23T08:18:29.212Z,16.17
2018-07-23T08:20:58.107Z,12.03
2018-07-23T08:23:27.212Z,11.43
2018-07-23T08:25:56.585Z,10.07
2018-07-23T08:28:25.965Z,11.93
2018-07-23T08:30:55.212Z,11.00
2018-07-23T08:33:24.452Z,9.80
2018-07-23T08:35:53.700Z,20.27
2018-07-23T08:38:22.749Z,12.57
2018-07-23T08:40:51.982Z,9.73
2018-07-23T08:43:21.288Z,11.90
2018-07-23T08:45:50.525Z,11.33
2018-07-23T08:48:20.452Z,13.13
2018-07-23T08:50:49.696Z,11.03
2018-07-23T08:53:19.852Z,11.90
2018-07-23T08:55:49.040Z,10.47
2018-07-23T08:58:18.320Z,10.97
2018-07-23T09:00:47.589Z,11.23
2018-07-23T09:03:16.978Z,14.50
2018-07-23T09:05:46.344Z,10.70
2018-07-23T09:08:15.856Z,14.50
2018-07-23T09:10:45.222Z,11.27
2018-07-23T09:13:14.464Z,10.53
2018-07-23T09:15:43.696Z,10.40
2018-07-23T09:18:13.108Z,11.80
2018-07-23T09:20:42.347Z,10.60
2018-07-23T09:23:15.689Z,10.50
2018-07-23T09:25:45.908Z,10.60
2018-07-23T09:28:16.392Z,10.37
2018-07-23T09:30:51.213Z,10.50
2018-07-23T09:33:21.457Z,10.57
2018-07-23T09:35:51.320Z,14.10
2018-07-23T09:38:21.572Z,10.00
2018-07-23T09:40:51.136Z,11.77
2018-07-23T09:43:20.434Z,9.60
2018-07-23T09:45:49.681Z,17.17
2018-07-23T09:48:19.243Z,9.67
2018-07-23T09:50:48.324Z,11.20
2018-07-23T09:53:17.710Z,9.03
2018-07-23T09:55:46.960Z,14.47
2018-07-23T09:58:16.170Z,15.33
2018-07-23T10:00:50.877Z,11.80
2018-07-23T10:03:20.359Z,10.03
2018-07-23T10:05:49.741Z,9.40
2018-07-23T10:08:19.172Z,11.37
2018-07-23T10:10:48.421Z,10.47
2018-07-23T10:13:17.678Z,9.00
2018-07-23T10:15:46.920Z,9.40
2018-07-23T10:18:16.169Z,10.97
2018-07-23T10:20:45.578Z,8.87
2018-07-23T10:23:14.924Z,8.27
2018-07-23T10:25:44.349Z,10.90
2018-07-23T10:28:13.786Z,13.33
2018-07-23T10:30:43.589Z,9.93
2018-07-23T10:33:13.253Z,10.10
2018-07-23T10:35:42.149Z,21.83
2018-07-23T10:38:11.346Z,7.47
2018-07-23T10:40:40.621Z,8.47
2018-07-23T10:43:09.869Z,12.10
2018-07-23T10:45:39.193Z,9.87
2018-07-23T10:48:08.439Z,10.47
2018-07-23T10:50:37.642Z,8.77
2018-07-23T10:53:07.297Z,10.23
2018-07-23T10:55:36.502Z,7.80
2018-07-23T10:58:06.042Z,9.87
2018-07-23T11:00:35.292Z,12.77
2018-07-23T11:03:04.603Z,13.73
2018-07-23T11:05:33.929Z,10.73
2018-07-23T11:08:03.312Z,9.80
2018-07-23T11:10:32.821Z,13.17
2018-07-23T11:13:02.053Z,10.63
2018-07-23T11:15:31.681Z,8.67
2018-07-23T11:18:00.929Z,8.37
2018-07-23T11:20:30.191Z,13.10
2018-07-23T11:22:59.883Z,13.30
2018-07-23T11:25:40.668Z,10.37
2018-07-23T11:27:58.402Z,7.37
2018-07-23T11:30:27.762Z,7.60
2018-07-23T11:32:57.051Z,11.33
2018-07-23T11:35:26.828Z,8.20
2018-07-23T11:37:56.166Z,9.00
2018-07-23T11:40:25.393Z,6.70
2018-07-23T11:42:54.617Z,8.60
2018-07-23T11:45:23.960Z,6.20
2018-07-23T11:47:53.217Z,13.17
2018-07-23T11:50:22.492Z,9.53
2018-07-23T11:52:51.969Z,7.13
2018-07-23T11:55:21.245Z,6.20
2018-07-23T11:57:50.500Z,8.30
2018-07-23T12:00:19.838Z,9.80
2018-07-23T12:02:49.069Z,5.40
2018-07-23T12:05:18.400Z,8.37
2018-07-23T12:07:47.657Z,6.37
2018-07-23T12:10:16.872Z,8.63
2018-07-23T12:12:46.157Z,11.43
2018-07-23T12:15:15.709Z,7.90
2018-07-23T12:17:46.069Z,7.43
2018-07-23T12:20:19.804Z,6.60
2018-07-23T12:22:49.548Z,6.10
2018-07-23T12:25:18.805Z,5.80
2018-07-23T12:27:48.099Z,5.93
2018-07-23T12:30:18.096Z,6.07
2018-07-23T12:32:47.357Z,6.70
2018-07-23T12:35:16.605Z,8.33
2018-07-23T12:37:46.405Z,6.40
2018-07-23T12:40:19.203Z,5.63
2018-07-23T12:42:48.417Z,5.83
2018-07-23T12:45:17.684Z,5.60
2018-07-23T12:47:46.985Z,5.73
2018-07-23T12:50:16.389Z,9.33
2018-07-23T12:52:45.874Z,7.33
2018-07-23T12:55:15.331Z,4.97
2018-07-23T12:57:44.856Z,5.27
2018-07-23T13:00:16.157Z,6.10
2018-07-23T13:02:45.695Z,6.47
2018-07-23T13:05:14.908Z,5.07
2018-07-23T13:07:44.845Z,6.10
2018-07-23T13:10:13.864Z,7.20
2018-07-23T13:12:44.917Z,8.60
2018-07-23T13:15:14.529Z,10.63
2018-07-23T13:17:43.916Z,7.80
2018-07-23T13:20:13.230Z,9.53
2018-07-23T13:22:43.052Z,7.40
2018-07-23T13:25:12.310Z,6.60
2018-07-23T13:27:41.608Z,6.93
2018-07-23T13:30:10.860Z,10.20
2018-07-23T13:32:40.495Z,6.73
2018-07-23T13:35:10.001Z,6.30
2018-07-23T13:37:39.543Z,7.33
2018-07-23T13:40:09.072Z,5.43
2018-07-23T13:42:38.300Z,6.83
2018-07-23T13:45:09.136Z,8.60
2018-07-23T13:47:39.624Z,4.53
2018-07-23T13:50:08.943Z,5.20
2018-07-23T13:52:38.240Z,6.17
2018-07-23T13:55:07.516Z,11.53
2018-07-23T13:57:36.840Z,9.03
2018-07-23T14:00:06.582Z,5.23
2018-07-23T14:02:35.904Z,4.57
2018-07-23T14:05:05.472Z,6.50
2018-07-23T14:07:34.668Z,5.03
2018-07-23T14:10:04.071Z,4.47
2018-07-23T14:12:33.373Z,5.90
2018-07-23T14:15:02.640Z,8.90
2018-07-23T14:17:31.976Z,5.60
2018-07-23T14:20:01.278Z,5.93
2018-07-23T14:22:30.493Z,5.70
2018-07-23T14:24:59.725Z,6.47
2018-07-23T14:27:29.120Z,7.43
2018-07-23T14:29:58.349Z,10.27
2018-07-23T14:32:27.581Z,6.60
2018-07-23T14:34:56.841Z,9.40
2018-07-23T14:37:26.078Z,6.30
2018-07-23T14:39:55.349Z,6.00
2018-07-23T14:42:24.915Z,6.00
2018-07-23T14:44:54.180Z,5.93
2018-07-23T14:47:23.425Z,7.43
2018-07-23T14:49:53.884Z,7.73
2018-07-23T14:52:23.388Z,5.30
2018-07-23T14:54:52.620Z,6.23
2018-07-23T14:57:21.869Z,6.43
2018-07-23T14:59:51.153Z,6.43
2018-07-23T15:02:20.686Z,5.10
2018-07-23T15:04:49.965Z,5.73
2018-07-23T15:07:19.421Z,13.23
2018-07-23T15:09:48.720Z,7.73
2018-07-23T15:12:18.517Z,6.80
2018-07-23T15:14:47.824Z,6.83
2018-07-23T15:17:17.218Z,5.87
2018-07-23T15:19:46.519Z,5.63
2018-07-23T15:22:15.761Z,8.17
2018-07-23T15:24:45.460Z,4.63
2018-07-23T15:27:14.736Z,9.10
2018-07-23T15:29:44.053Z,7.00
2018-07-23T15:32:13.280Z,5.57
2018-07-23T15:34:42.844Z,13.03
2018-07-23T15:37:12.072Z,5.30
2018-07-23T15:39:41.317Z,4.87
2018-07-23T15:42:10.702Z,11.80
2018-07-23T15:44:40.238Z,6.67
2018-07-23T15:47:09.157Z,5.37
2018-07-23T15:49:38.537Z,5.60
2018-07-23T15:52:07.807Z,5.00
2018-07-23T15:54:37.312Z,9.73
2018-07-23T15:57:06.680Z,5.93
2018-07-23T15:59:35.982Z,4.70
2018-07-23T16:02:05.249Z,5.77
2018-07-23T16:04:34.498Z,4.53
2018-07-23T16:07:03.832Z,4.23
2018-07-23T16:09:33.124Z,6.00
2018-07-23T16:12:02.512Z,4.63
2018-07-23T16:14:31.775Z,5.90
2018-07-23T16:17:02.344Z,5.87
2018-07-23T16:19:31.984Z,4.40
2018-07-23T16:22:01.536Z,4.70
2018-07-23T16:24:30.820Z,4.57
2018-07-23T16:27:00.385Z,4.10
2018-07-23T16:29:29.595Z,4.17
2018-07-23T16:31:58.848Z,5.03
2018-07-23T16:34:28.324Z,4.17
2018-07-23T16:36:57.608Z,5.00
2018-07-23T16:39:27.828Z,6.90
2018-07-23T16:41:57.196Z,4.37
2018-07-23T16:44:26.456Z,3.90
2018-07-23T16:46:55.848Z,4.27
2018-07-23T16:49:25.117Z,5.53
2018-07-23T16:51:54.664Z,4.20
2018-07-23T16:54:23.908Z,4.40
2018-07-23T16:56:54.572Z,4.30
2018-07-23T16:59:23.826Z,3.97
2018-07-23T17:01:53.105Z,3.70
2018-07-23T17:04:22.476Z,3.97
2018-07-23T17:06:51.923Z,4.90
2018-07-23T17:09:21.141Z,4.03
2018-07-23T17:11:50.497Z,6.10
2018-07-23T17:14:19.769Z,3.10
2018-07-23T17:16:49.164Z,13.50
2018-07-23T17:19:18.479Z,4.30
2018-07-23T17:21:47.780Z,4.63
2018-07-23T17:24:17.180Z,4.10
2018-07-23T17:26:47.016Z,6.87
2018-07-23T17:29:16.279Z,4.30
2018-07-23T17:31:45.621Z,4.00
2018-07-23T17:34:14.866Z,4.33
2018-07-23T17:36:44.200Z,4.13
2018-07-23T17:39:13.524Z,4.97
2018-07-23T17:41:43.108Z,4.67
2018-07-23T17:44:12.712Z,4.07
2018-07-23T17:46:41.982Z,5.57
2018-07-23T17:49:11.489Z,5.33
2018-07-23T17:51:40.771Z,4.43
2018-07-23T17:54:10.104Z,7.57
2018-07-23T17:56:39.545Z,5.47
2018-07-23T17:59:08.778Z,4.47
2018-07-23T18:01:38.417Z,5.80
2018-07-23T18:04:07.737Z,4.27
2018-07-23T18:06:37.208Z,4.80
2018-07-23T18:09:08.420Z,5.17
2018-07-23T18:11:37.758Z,5.80
2018-07-23T18:14:07.360Z,4.60
2018-07-23T18:16:36.723Z,4.83
2018-07-23T18:19:06.018Z,5.63
2018-07-23T18:21:35.279Z,4.90
2018-07-23T18:24:04.580Z,7.63
2018-07-23T18:26:33.988Z,4.83
2018-07-23T18:29:03.527Z,5.27
2018-07-23T18:31:33.134Z,6.70
2018-07-23T18:34:02.444Z,5.40
2018-07-23T18:36:31.700Z,5.07
2018-07-23T18:39:00.957Z,7.80
2018-07-23T18:41:30.196Z,6.73
2018-07-23T18:44:00.294Z,6.37
2018-07-23T18:46:29.896Z,7.43
2018-07-23T18:49:21.673Z,6.40
2018-07-23T18:51:52.387Z,9.40
2018-07-23T18:54:23.500Z,5.50
2018-07-23T18:56:54.511Z,10.53
2018-07-23T18:59:23.783Z,7.80
2018-07-23T19:01:53.887Z,11.07
2018-07-23T19:04:23.277Z,5.47
2018-07-23T19:06:52.516Z,7.10
2018-07-23T19:09:23.028Z,9.50
2018-07-23T19:11:53.774Z,5.80
2018-07-23T19:14:23.032Z,6.10
2018-07-23T19:16:53.323Z,7.03
2018-07-23T19:19:22.621Z,5.73
2018-07-23T19:21:51.915Z,5.77
2018-07-23T19:24:21.184Z,7.53
2018-07-23T19:26:50.471Z,7.50
2018-07-23T19:29:19.692Z,6.43
2018-07-23T19:31:48.912Z,7.10
2018-07-23T19:34:18.405Z,10.70
2018-07-23T19:36:47.656Z,6.40
2018-07-23T19:39:18.671Z,9.70
2018-07-23T19:41:47.875Z,8.50
2018-07-23T19:44:17.088Z,6.40
2018-07-23T19:46:46.480Z,9.70
2018-07-23T19:49:15.720Z,6.53
2018-07-23T19:51:44.982Z,10.93
2018-07-23T19:54:14.445Z,12.93
2018-07-23T19:56:44.020Z,15.80
2018-07-23T19:59:13.367Z,12.93
2018-07-23T20:01:42.632Z,7.30
2018-07-23T20:04:11.875Z,6.87
2018-07-23T20:06:41.108Z,7.50
2018-07-23T20:09:11.172Z,8.10
2018-07-23T20:11:40.434Z,8.00
2018-07-23T20:14:09.660Z,20.80
2018-07-23T20:16:38.985Z,27.33
2018-07-23T20:19:08.313Z,19.23
2018-07-23T20:21:37.564Z,22.33
2018-07-23T20:24:06.976Z,13.80
2018-07-23T20:26:36.250Z,12.03
2018-07-23T20:29:05.525Z,14.87
2018-07-23T20:31:34.491Z,19.00
2018-07-23T20:34:03.660Z,17.87
2018-07-23T20:36:32.912Z,13.67
2018-07-23T20:39:02.260Z,12.53
2018-07-23T20:41:31.763Z,14.33
2018-07-23T20:44:01.074Z,14.53
2018-07-23T20:46:30.510Z,11.10
2018-07-23T20:49:00.193Z,28.57
2018-07-23T20:51:29.508Z,35.30
2018-07-23T20:53:58.784Z,33.20
2018-07-23T20:56:28.080Z,36.43
2018-07-23T20:58:57.312Z,29.63
2018-07-23T21:01:26.583Z,41.93
2018-07-23T21:03:56.041Z,34.93
2018-07-23T21:06:25.350Z,33.50
2018-07-23T21:08:54.580Z,16.80
2018-07-23T21:11:23.848Z,21.67
2018-07-23T21:13:52.867Z,18.70
2018-07-23T21:16:22.008Z,12.77
2018-07-23T21:18:51.276Z,22.17
2018-07-23T21:21:20.508Z,12.90
2018-07-23T21:23:49.752Z,13.03
2018-07-23T21:26:19.503Z,14.13
2018-07-23T21:28:48.712Z,10.30
2018-07-23T21:31:18.064Z,15.27
2018-07-23T21:33:47.520Z,9.57
2018-07-23T21:36:16.751Z,9.83
2018-07-23T21:38:45.980Z,15.07
2018-07-23T21:41:15.259Z,13.33
2018-07-23T21:43:44.492Z,10.43
2018-07-23T21:46:13.775Z,9.80
2018-07-23T21:48:43.824Z,10.07
2018-07-23T21:51:13.197Z,10.77
2018-07-23T21:53:42.448Z,10.83
2018-07-23T21:56:11.811Z,14.17
2018-07-23T21:58:41.047Z,10.50
2018-07-23T22:01:10.327Z,10.70
2018-07-23T22:03:39.569Z,12.60
2018-07-23T22:06:08.451Z,18.00
2018-07-23T22:08:37.614Z,18.43
2018-07-23T22:11:07.409Z,11.37
2018-07-23T22:13:36.696Z,10.83
2018-07-23T22:16:05.984Z,10.97
2018-07-23T22:18:34.899Z,10.70
2018-07-23T22:21:05.098Z,10.03
2018-07-23T22:23:34.385Z,11.77
2018-07-23T22:26:04.040Z,12.27
2018-07-23T22:28:33.360Z,12.43
2018-07-23T22:31:02.896Z,9.80
2018-07-23T22:33:32.663Z,9.10
2018-07-23T22:36:02.041Z,8.90
2018-07-23T22:38:30.943Z,12.47
2018-07-23T22:41:00.297Z,14.20
2018-07-23T22:43:29.531Z,11.30
2018-07-23T22:45:58.776Z,16.40
2018-07-23T22:48:28.064Z,10.67
2018-07-23T22:50:57.301Z,12.20
2018-07-23T22:53:26.871Z,11.63
2018-07-23T22:55:56.788Z,12.83
2018-07-23T22:58:25.992Z,10.60
2018-07-23T23:00:55.251Z,11.63
2018-07-23T23:03:24.513Z,15.63
2018-07-23T23:05:53.728Z,14.20
2018-07-23T23:08:22.976Z,12.20
2018-07-23T23:10:52.223Z,11.47
2018-07-23T23:13:21.132Z,12.67
2018-07-23T23:15:50.299Z,13.17
2018-07-23T23:18:20.065Z,10.83
2018-07-23T23:20:49.329Z,10.50
2018-07-23T23:23:18.207Z,16.50
2018-07-23T23:25:47.352Z,10.33
2018-07-23T23:28:16.680Z,10.73
2018-07-23T23:30:45.879Z,12.67
2018-07-23T23:33:15.091Z,10.03
2018-07-23T23:35:44.251Z,10.53
2018-07-23T23:38:13.451Z,12.87
2018-07-23T23:40:42.844Z,10.77
2018-07-23T23:43:12.027Z,12.03
2018-07-23T23:45:41.271Z,10.60
2018-07-23T23:48:10.478Z,11.10
2018-07-23T23:50:39.978Z,9.93
2018-07-23T23:53:09.187Z,10.63
2018-07-23T23:55:38.739Z,10.83
2018-07-23T23:58:07.927Z,12.47
